Terminal Aerodrome Forecast
Issued by NWS

Home | Current Version | Previous Version | Text Only | Print | Product List | Glossary On
Versions: 1 2 3 4 5 6 7 8 9 10 11 12 13 14 15 16 17 18 19 20 21 22 23 24 25
000
FTUS41 KPBZ 270500
TAFMGW
TAF
KMGW 270520Z 2706/2806 32006KT P6SM OVC010
      TEMPO 2706/2710 OVC006
     FM271900 31010KT 6SM -SN OVC015
     FM280100 32010KT P6SM OVC010=

USA.gov is the U.S. government's official web portal to all federal, state and local government web resources and services.